Time;durP1;ratioP1;P1;durP2;ratioP2;P2;SDS_P1;SDS_P2;PMS_P1;PMS_P2;Temp;Humidity;BMP_temperature;BMP_pressure;BME280_temperature;BME280_humidity;BME280_pressure;Samples;Min_cycle;Max_cycle;Signal;HPM_P1;HPM_P2
2023/04/15 00:00:33;;;;;;;9.03;6.50;;;;;;;8.14;100.00;101000.13;5008437;28;20175;-68
2023/04/15 00:03:00;;;;;;;8.37;6.43;;;;;;;8.11;100.00;100992.38;5007537;28;20187;-66
2023/04/15 00:05:28;;;;;;;6.73;5.93;;;;;;;8.12;100.00;100994.13;5011274;28;20290;-67
2023/04/15 00:07:53;;;;;;;7.70;6.50;;;;;;;8.09;100.00;100995.69;5011538;28;20226;-67
2023/04/15 00:10:19;;;;;;;10.17;7.00;;;;;;;8.11;100.00;100986.44;5011919;28;20191;-66
2023/04/15 00:12:44;;;;;;;8.53;6.60;;;;;;;8.12;100.00;100976.28;5010955;28;20202;-67
2023/04/15 00:15:11;;;;;;;8.60;6.50;;;;;;;8.12;100.00;100976.28;5012482;28;20263;-66
2023/04/15 00:17:38;;;;;;;8.30;6.80;;;;;;;8.12;100.00;100975.41;5011644;28;20215;-66
2023/04/15 00:20:05;;;;;;;8.90;6.20;;;;;;;8.07;100.00;100974.38;5009206;28;20282;-66
2023/04/15 00:22:31;;;;;;;7.23;5.90;;;;;;;8.08;100.00;100971.91;5010378;28;20203;-66
2023/04/15 00:24:56;;;;;;;9.47;6.47;;;;;;;8.05;100.00;100974.34;5011813;28;20199;-67
2023/04/15 00:27:22;;;;;;;7.47;5.57;;;;;;;8.08;100.00;100974.44;5011413;28;20215;-69
2023/04/15 00:29:47;;;;;;;9.63;6.53;;;;;;;8.03;100.00;100976.00;5011655;28;20278;-68
2023/04/15 00:32:13;;;;;;;7.50;6.20;;;;;;;8.04;100.00;100979.38;5011143;28;20289;-67
2023/04/15 00:34:39;;;;;;;8.10;6.37;;;;;;;8.02;100.00;100981.03;4993972;28;20253;-67
2023/04/15 00:37:06;;;;;;;9.47;6.70;;;;;;;8.03;100.00;100981.09;4991119;28;20234;-68
2023/04/15 00:39:31;;;;;;;9.30;6.80;;;;;;;8.05;100.00;100983.66;4994125;28;20572;-68
2023/04/15 00:41:57;;;;;;;9.43;6.83;;;;;;;8.03;100.00;100982.75;4992778;28;20202;-67
2023/04/15 00:44:22;;;;;;;10.07;6.60;;;;;;;8.01;100.00;100980.16;5011452;28;20245;-65
2023/04/15 00:46:50;;;;;;;8.40;6.37;;;;;;;7.99;100.00;100984.34;4993308;28;20210;-68
2023/04/15 00:49:17;;;;;;;8.00;5.97;;;;;;;7.99;100.00;100979.25;4996320;28;20196;-67
2023/04/15 00:51:42;;;;;;;8.10;6.47;;;;;;;8.00;100.00;100980.09;5010814;28;20647;-67
2023/04/15 00:54:08;;;;;;;10.17;6.83;;;;;;;8.02;100.00;100975.94;5011505;28;20226;-67
2023/04/15 00:56:35;;;;;;;10.30;6.57;;;;;;;8.01;100.00;100974.22;4993165;28;20591;-68
2023/04/15 00:59:01;;;;;;;8.47;6.67;;;;;;;7.95;100.00;100969.78;5010495;28;20241;-68
2023/04/15 01:01:27;;;;;;;8.43;7.10;;;;;;;7.95;100.00;100967.22;4997381;28;20248;-68
2023/04/15 01:03:55;;;;;;;8.00;6.23;;;;;;;7.97;100.00;100964.72;4991526;28;20664;-68
2023/04/15 01:06:21;;;;;;;7.27;6.30;;;;;;;7.97;100.00;100957.06;5010026;28;20219;-68
2023/04/15 01:08:46;;;;;;;10.43;6.23;;;;;;;7.97;100.00;100954.53;5009649;28;20253;-68
2023/04/15 01:11:12;;;;;;;8.07;6.20;;;;;;;7.99;100.00;100953.75;4992079;28;20240;-67
2023/04/15 01:13:39;;;;;;;10.13;6.50;;;;;;;8.01;100.00;100953.81;4991221;28;20203;-66
2023/04/15 01:16:05;;;;;;;9.67;6.37;;;;;;;7.98;100.00;100948.59;5009701;28;20226;-66
2023/04/15 01:18:31;;;;;;;7.77;6.20;;;;;;;7.99;100.00;100955.44;5009800;28;20213;-66
2023/04/15 01:21:00;;;;;;;7.17;5.47;;;;;;;8.00;100.00;100945.28;4998284;28;20236;-66
2023/04/15 01:23:26;;;;;;;7.57;5.80;;;;;;;8.02;100.00;100948.72;4991706;28;20234;-66
2023/04/15 01:25:53;;;;;;;7.17;5.57;;;;;;;8.00;100.00;100942.72;5010622;28;20808;-66
2023/04/15 01:28:19;;;;;;;7.80;6.00;;;;;;;8.00;100.00;100950.38;4992791;28;20195;-67
2023/04/15 01:30:44;;;;;;;8.37;6.30;;;;;;;8.00;100.00;100947.84;5000139;28;20571;-68
2023/04/15 01:33:10;;;;;;;8.33;5.60;;;;;;;8.01;100.00;100952.09;4992091;28;20187;-68
2023/04/15 01:35:37;;;;;;;6.93;5.77;;;;;;;8.01;100.00;100941.91;5010546;28;20696;-67
2023/04/15 01:38:06;;;;;;;7.93;6.33;;;;;;;7.98;100.00;100944.38;5009467;28;20270;-67
2023/04/15 01:40:32;;;;;;;8.07;6.17;;;;;;;8.01;100.00;100946.16;5006320;28;20217;-66
2023/04/15 01:42:58;;;;;;;7.87;6.17;;;;;;;8.00;100.00;100942.72;5009946;28;20202;-70
2023/04/15 01:45:24;;;;;;;8.27;6.30;;;;;;;8.00;100.00;100932.53;5009242;28;20194;-70
2023/04/15 01:47:50;;;;;;;8.27;6.40;;;;;;;8.03;100.00;100930.09;4992392;28;20234;-66
2023/04/15 01:50:15;;;;;;;9.33;6.20;;;;;;;8.03;100.00;100921.56;5009456;28;20195;-67
2023/04/15 01:52:41;;;;;;;8.90;5.90;;;;;;;8.00;100.00;100922.34;5009777;28;20602;-67
2023/04/15 01:55:07;;;;;;;8.93;5.73;;;;;;;8.01;100.00;100924.06;5010178;28;20183;-68
2023/04/15 01:57:33;;;;;;;7.43;6.17;;;;;;;8.00;100.00;100924.88;5008871;28;20238;-68
2023/04/15 01:59:59;;;;;;;8.57;6.87;;;;;;;7.99;100.00;100919.72;5009334;28;20329;-67
2023/04/15 02:02:25;;;;;;;9.13;6.70;;;;;;;7.96;100.00;100914.53;4996228;28;20634;-68
2023/04/15 02:04:50;;;;;;;8.60;6.73;;;;;;;8.01;100.00;100915.56;4995090;28;20191;-68
2023/04/15 02:07:16;;;;;;;8.33;6.87;;;;;;;8.01;100.00;100913.03;4991982;28;20260;-68
2023/04/15 02:09:42;;;;;;;8.07;6.80;;;;;;;8.03;100.00;100912.25;5008798;28;20229;-68
2023/04/15 02:12:08;;;;;;;8.80;6.97;;;;;;;8.05;100.00;100915.69;4990926;28;20240;-67
2023/04/15 02:14:33;;;;;;;9.17;7.50;;;;;;;8.06;100.00;100914.88;4994293;28;20195;-66
2023/04/15 02:17:05;;;;;;;9.53;7.73;;;;;;;8.09;100.00;100916.63;4991503;28;20226;-68
2023/04/15 02:19:32;;;;;;;9.80;7.20;;;;;;;8.08;100.00;100910.69;5009879;28;20226;-70
2023/04/15 02:21:57;;;;;;;10.60;7.43;;;;;;;8.08;100.00;100907.25;4991712;28;20256;-68
2023/04/15 02:24:22;;;;;;;11.97;8.37;;;;;;;8.08;100.00;100912.38;4991470;28;20692;-67
2023/04/15 02:26:48;;;;;;;14.77;8.90;;;;;;;8.07;100.00;100908.09;5007883;28;20273;-68
2023/04/15 02:29:14;;;;;;;12.10;8.33;;;;;;;8.10;100.00;100910.72;4991897;28;20191;-68
2023/04/15 02:31:41;;;;;;;15.23;9.40;;;;;;;8.06;100.00;100906.38;5009350;28;20645;-69
2023/04/15 02:34:07;;;;;;;13.70;8.97;;;;;;;8.07;100.00;100915.75;4991520;28;20241;-68
2023/04/15 02:36:33;;;;;;;13.93;9.50;;;;;;;8.04;100.00;100913.09;5007512;28;20215;-69
2023/04/15 02:38:59;;;;;;;14.70;9.73;;;;;;;8.05;100.00;100919.91;5007833;28;20206;-67
2023/04/15 02:41:27;;;;;;;13.43;10.17;;;;;;;8.05;100.00;100915.69;5007843;28;20613;-69
2023/04/15 02:43:53;;;;;;;12.73;9.20;;;;;;;8.09;100.00;100912.41;4988622;28;20234;-68
2023/04/15 02:46:20;;;;;;;18.03;11.30;;;;;;;8.04;100.00;100908.88;4991549;28;20261;-69
2023/04/15 02:48:46;;;;;;;16.53;11.43;;;;;;;8.05;100.00;100910.59;4997190;28;20198;-68
2023/04/15 02:51:18;;;;;;;15.53;10.70;;;;;;;8.07;100.00;100914.03;4990305;28;20188;-66
2023/04/15 02:53:45;;;;;;;15.47;11.07;;;;;;;8.10;100.00;100915.81;4992302;28;20844;-67
2023/04/15 02:56:11;;;;;;;16.83;11.00;;;;;;;8.11;100.00;100915.88;5009238;28;20248;-68
2023/04/15 02:58:38;;;;;;;18.50;12.17;;;;;;;8.12;100.00;100922.72;5007249;28;20556;-67
2023/04/15 03:01:03;;;;;;;16.80;11.70;;;;;;;8.14;100.00;100923.63;4986892;28;20202;-67
2023/04/15 03:03:29;;;;;;;18.97;12.00;;;;;;;8.15;100.00;100922.78;4990607;28;20764;-67
2023/04/15 03:05:55;;;;;;;17.63;11.60;;;;;;;8.16;100.00;100923.66;4990694;28;20187;-68
2023/04/15 03:08:20;;;;;;;19.10;12.43;;;;;;;8.17;100.00;100916.06;4990520;28;20229;-67
2023/04/15 03:10:46;;;;;;;21.33;12.57;;;;;;;8.16;100.00;100909.22;4989982;28;20283;-68
2023/04/15 03:13:12;;;;;;;20.87;13.67;;;;;;;8.18;100.00;100910.16;5008585;28;20696;-67
2023/04/15 03:15:38;;;;;;;20.70;14.07;;;;;;;8.18;100.00;100897.38;5007300;28;20215;-68
2023/04/15 03:18:04;;;;;;;20.63;13.13;;;;;;;8.19;100.00;100896.56;4985302;28;20244;-67
2023/04/15 03:20:29;;;;;;;21.10;13.30;;;;;;;8.19;100.00;100900.78;4987777;28;20557;-69
2023/04/15 03:22:55;;;;;;;23.03;14.57;;;;;;;8.20;100.00;100898.31;5004881;28;20286;-68
2023/04/15 03:25:22;;;;;;;20.33;12.50;;;;;;;8.24;100.00;100901.84;4990800;28;20212;-68
2023/04/15 03:27:47;;;;;;;21.33;14.40;;;;;;;8.21;100.00;100899.19;5005838;28;20206;-66
2023/04/15 03:30:13;;;;;;;23.17;14.53;;;;;;;8.20;100.00;100898.31;5008299;28;20191;-68
2023/04/15 03:32:39;;;;;;;23.83;14.73;;;;;;;8.20;100.00;100903.41;4990628;28;20195;-67
2023/04/15 03:35:07;;;;;;;24.50;15.40;;;;;;;8.18;100.00;100901.63;4989628;28;20902;-68
2023/04/15 03:37:32;;;;;;;24.43;14.73;;;;;;;8.18;100.00;100909.25;5006768;28;20246;-68
2023/04/15 03:39:57;;;;;;;26.23;15.37;;;;;;;8.17;100.00;100900.78;4990244;28;20660;-68
2023/04/15 03:42:23;;;;;;;28.20;14.93;;;;;;;8.18;100.00;100899.06;5008366;28;20245;-67
2023/04/15 03:44:48;;;;;;;21.40;14.27;;;;;;;8.21;100.00;100904.31;5007027;28;20195;-66
2023/04/15 03:47:14;;;;;;;22.70;14.27;;;;;;;8.24;100.00;100905.25;5007897;28;20217;-68
2023/04/15 03:49:40;;;;;;;21.63;13.93;;;;;;;8.24;100.00;100904.41;5008305;28;20191;-69
2023/04/15 03:52:05;;;;;;;23.00;14.20;;;;;;;8.23;100.00;100905.19;5007133;28;20741;-68
2023/04/15 03:54:31;;;;;;;23.13;14.10;;;;;;;8.25;100.00;100896.78;5007137;28;20672;-67
2023/04/15 03:56:56;;;;;;;20.50;13.13;;;;;;;8.27;100.00;100897.69;5007208;28;20712;-69
2023/04/15 03:59:22;;;;;;;20.17;13.57;;;;;;;8.26;100.00;100905.28;5007480;28;20688;-67
2023/04/15 04:01:47;;;;;;;21.83;14.00;;;;;;;8.27;100.00;100907.91;5007969;28;20203;-67
2023/04/15 04:04:12;;;;;;;21.97;13.37;;;;;;;8.26;100.00;100888.31;5008147;28;20191;-69
2023/04/15 04:06:38;;;;;;;18.87;12.23;;;;;;;8.27;100.00;100889.16;5007675;28;20214;-67
2023/04/15 04:09:03;;;;;;;21.10;13.20;;;;;;;8.28;100.00;100896.88;5007053;28;20187;-65
2023/04/15 04:11:29;;;;;;;21.83;13.53;;;;;;;8.28;100.00;100898.53;5006887;28;20551;-69
2023/04/15 04:13:55;;;;;;;21.70;13.23;;;;;;;8.30;100.00;100899.47;5007818;28;20195;-68
2023/04/15 04:16:20;;;;;;;21.83;13.77;;;;;;;8.32;100.00;100897.81;5007872;28;20634;-67
2023/04/15 04:18:46;;;;;;;20.80;13.60;;;;;;;8.32;100.00;100896.13;5006451;28;20207;-68
2023/04/15 04:21:11;;;;;;;19.97;13.00;;;;;;;8.30;100.00;100892.66;5008046;28;20278;-69
2023/04/15 04:23:37;;;;;;;24.70;14.77;;;;;;;8.30;100.00;100895.22;5007632;28;20253;-67
2023/04/15 04:26:02;;;;;;;21.50;14.53;;;;;;;8.30;100.00;100904.56;5007923;28;20265;-67
2023/04/15 04:28:27;;;;;;;24.63;15.70;;;;;;;8.30;100.00;100913.06;5005489;28;20222;-69
2023/04/15 04:30:53;;;;;;;25.17;14.73;;;;;;;8.32;100.00;100901.25;5008178;28;20283;-66
2023/04/15 04:33:19;;;;;;;27.83;16.50;;;;;;;8.30;100.00;100910.53;4987865;28;20199;-67
2023/04/15 04:35:44;;;;;;;29.53;17.70;;;;;;;8.31;100.00;100901.19;5006926;28;20222;-67
2023/04/15 04:38:10;;;;;;;29.50;17.87;;;;;;;8.32;100.00;100908.03;5006745;28;20696;-68
2023/04/15 04:40:35;;;;;;;33.03;18.53;;;;;;;8.33;100.00;100918.28;5006937;28;20234;-68
2023/04/15 04:43:01;;;;;;;34.77;19.47;;;;;;;8.32;100.00;100914.00;4990522;28;20736;-67
2023/04/15 04:45:26;;;;;;;35.77;19.73;;;;;;;8.32;100.00;100898.69;5006730;28;20203;-68
2023/04/15 04:47:52;;;;;;;35.70;19.77;;;;;;;8.33;100.00;100908.06;4987982;28;20227;-67
2023/04/15 04:50:17;;;;;;;35.97;19.87;;;;;;;8.35;100.00;100913.22;4991989;28;20206;-70
2023/04/15 04:52:43;;;;;;;34.23;20.80;;;;;;;8.34;100.00;100909.78;5011105;28;20195;-68
2023/04/15 04:55:08;;;;;;;38.67;21.73;;;;;;;8.33;100.00;100912.28;5011098;28;20195;-67
2023/04/15 04:57:38;;;;;;;41.63;21.80;;;;;;;8.30;100.00;100920.72;5009612;28;20215;-68
2023/04/15 05:00:07;;;;;;;37.03;22.33;;;;;;;8.34;100.00;100911.50;5010959;28;20263;-66
2023/04/15 05:02:32;;;;;;;43.13;23.57;;;;;;;8.33;100.00;100918.28;5010468;28;20206;-66
2023/04/15 05:04:58;;;;;;;41.97;22.87;;;;;;;8.33;100.00;100927.59;5010235;28;20191;-67
2023/04/15 05:07:23;;;;;;;45.93;24.23;;;;;;;8.33;100.00;100928.47;5010573;28;20203;-68
2023/04/15 05:09:49;;;;;;;45.60;25.50;;;;;;;8.34;100.00;100924.25;5010607;28;20589;-66
2023/04/15 05:12:15;;;;;;;49.07;26.50;;;;;;;8.34;100.00;100924.25;5010808;28;20551;-66
2023/04/15 05:14:41;;;;;;;51.47;26.10;;;;;;;8.34;100.00;100922.53;5009714;28;20226;-66
2023/04/15 05:17:07;;;;;;;50.63;26.70;;;;;;;8.36;100.00;100915.81;5009996;28;20705;-67
2023/04/15 05:19:32;;;;;;;52.93;28.27;;;;;;;8.38;100.00;100910.78;5010569;28;20655;-67
2023/04/15 05:21:58;;;;;;;52.43;27.93;;;;;;;8.39;100.00;100912.50;5009425;28;20271;-67
2023/04/15 05:24:24;;;;;;;53.40;28.70;;;;;;;8.39;100.00;100897.19;5010366;28;20271;-69
2023/04/15 05:26:49;;;;;;;54.80;28.43;;;;;;;8.39;100.00;100900.59;5009703;28;20246;-67
2023/04/15 05:29:15;;;;;;;59.23;29.40;;;;;;;8.41;100.00;100910.84;5010620;28;20195;-67
2023/04/15 05:31:41;;;;;;;60.77;31.50;;;;;;;8.40;100.00;100911.66;5009802;28;20203;-68
2023/04/15 05:34:07;;;;;;;56.80;30.80;;;;;;;8.41;100.00;100916.81;5010551;28;20214;-67
2023/04/15 05:36:33;;;;;;;58.37;32.07;;;;;;;8.38;100.00;100928.63;5009818;28;20223;-68
2023/04/15 05:38:59;;;;;;;64.03;33.07;;;;;;;8.39;100.00;100922.69;5009492;28;20553;-67
2023/04/15 05:41:24;;;;;;;63.93;32.93;;;;;;;8.40;100.00;100920.19;5010196;28;20701;-67
2023/04/15 05:43:50;;;;;;;63.43;32.60;;;;;;;8.42;100.00;100925.31;5010262;28;20201;-68
2023/04/15 05:46:15;;;;;;;69.37;34.83;;;;;;;8.43;100.00;100922.81;5009656;28;20212;-67
2023/04/15 05:48:41;;;;;;;59.70;32.27;;;;;;;8.44;100.00;100914.34;5009842;28;20205;-68
2023/04/15 05:51:06;;;;;;;71.50;36.50;;;;;;;8.44;100.00;100911.78;4992233;28;20223;-68
2023/04/15 05:53:32;;;;;;;64.03;34.63;;;;;;;8.49;100.00;100920.47;5008261;28;20857;-68
2023/04/15 05:55:57;;;;;;;68.23;37.03;;;;;;;8.51;100.00;100926.47;5008939;28;20288;-66
2023/04/15 05:58:23;;;;;;;61.87;33.87;;;;;;;8.54;100.00;100921.47;5009673;28;20191;-67
2023/04/15 06:00:48;;;;;;;67.97;36.20;;;;;;;8.59;100.00;100931.78;4992395;28;20197;-67
2023/04/15 06:03:14;;;;;;;61.77;34.93;;;;;;;8.60;100.00;100933.50;5009645;28;20187;-67
2023/04/15 06:05:40;;;;;;;70.27;37.87;;;;;;;8.57;100.00;100941.09;5008906;28;20205;-68
2023/04/15 06:08:05;;;;;;;69.77;36.80;;;;;;;8.57;100.00;100931.72;5009223;28;20214;-69
2023/04/15 06:10:35;;;;;;;63.23;35.43;;;;;;;8.58;100.00;100938.59;5008417;28;20325;-68
2023/04/15 06:13:04;;;;;;;69.10;36.97;;;;;;;8.62;100.00;100945.47;5009423;28;20257;-67
2023/04/15 06:15:30;;;;;;;63.47;35.70;;;;;;;8.65;100.00;100949.81;5008622;28;20681;-68
2023/04/15 06:17:55;;;;;;;69.20;39.87;;;;;;;8.64;100.00;100950.63;5008998;28;20216;-66
2023/04/15 06:20:21;;;;;;;69.33;38.87;;;;;;;8.59;100.00;100950.53;5009332;28;20649;-68
2023/04/15 06:22:46;;;;;;;71.37;38.10;;;;;;;8.67;100.00;100950.75;5008466;28;20195;-67
2023/04/15 06:25:12;;;;;;;65.93;38.67;;;;;;;8.67;100.00;100956.69;5009672;28;20195;-67
2023/04/15 06:27:37;;;;;;;67.13;37.53;;;;;;;8.70;100.00;100953.38;5008791;28;21042;-68
2023/04/15 06:30:03;;;;;;;66.10;37.37;;;;;;;8.72;100.00;100962.81;5009223;28;20195;-67
2023/04/15 06:32:29;;;;;;;62.03;35.23;;;;;;;8.67;100.00;100968.59;5008682;28;20654;-67
2023/04/15 06:34:54;;;;;;;64.63;36.40;;;;;;;8.69;100.00;100977.16;5008841;28;20209;-67
2023/04/15 06:37:20;;;;;;;69.17;36.40;;;;;;;8.68;100.00;100963.56;5007359;28;20218;-68
2023/04/15 06:39:46;;;;;;;61.37;35.07;;;;;;;8.67;100.00;100961.78;5009101;28;20241;-67
2023/04/15 06:42:11;;;;;;;66.77;38.03;;;;;;;8.69;100.00;100959.28;5008377;28;20207;-66
2023/04/15 06:44:37;;;;;;;60.03;36.67;;;;;;;8.72;100.00;100970.47;5007860;28;20190;-66
2023/04/15 06:47:02;;;;;;;67.60;38.93;;;;;;;8.72;100.00;100967.03;5008537;28;20225;-68
2023/04/15 06:49:28;;;;;;;64.17;37.03;;;;;;;8.71;100.00;100967.88;5008421;28;20636;-66
2023/04/15 06:51:53;;;;;;;63.43;36.63;;;;;;;8.71;100.00;100968.72;5008464;28;20691;-66
2023/04/15 06:54:19;;;;;;;65.33;38.60;;;;;;;8.74;100.00;100967.94;5009099;28;20549;-66
2023/04/15 06:56:44;;;;;;;60.13;36.10;;;;;;;8.76;100.00;100968.88;5008505;28;20207;-66
2023/04/15 06:59:10;;;;;;;61.67;37.40;;;;;;;8.80;100.00;100971.53;5006717;28;20795;-66
2023/04/15 07:01:35;;;;;;;62.77;35.53;;;;;;;8.81;100.00;100987.72;5007707;28;20203;-67
2023/04/15 07:04:00;;;;;;;64.17;37.03;;;;;;;8.78;100.00;100985.97;5008751;28;20249;-66
2023/04/15 07:06:26;;;;;;;64.70;37.90;;;;;;;8.76;100.00;100979.09;5007910;28;20222;-68
2023/04/15 07:08:53;;;;;;;63.23;37.87;;;;;;;8.78;100.00;100980.84;5008950;28;20195;-66
2023/04/15 07:11:18;;;;;;;65.50;38.30;;;;;;;8.82;100.00;100984.34;5009090;28;20199;-68
2023/04/15 07:13:44;;;;;;;60.40;36.93;;;;;;;8.83;100.00;100981.84;5008164;28;20206;-67
2023/04/15 07:16:10;;;;;;;65.07;38.20;;;;;;;8.88;100.00;100980.28;5007536;28;20226;-69
2023/04/15 07:18:35;;;;;;;60.80;37.73;;;;;;;8.95;100.00;100984.75;5007577;28;20778;-67
2023/04/15 07:21:01;;;;;;;57.53;35.20;;;;;;;8.99;100.00;100993.38;5008705;28;20617;-67
2023/04/15 07:23:27;;;;;;;58.07;35.40;;;;;;;8.99;100.00;100994.19;5008304;28;20285;-67
2023/04/15 07:25:52;;;;;;;65.17;38.30;;;;;;;8.97;100.00;100995.88;5007681;28;20332;-67
2023/04/15 07:28:18;;;;;;;62.10;36.57;;;;;;;9.02;100.00;100991.75;5008286;28;20604;-68
2023/04/15 07:30:43;;;;;;;60.93;39.13;;;;;;;9.01;100.00;100995.13;5008601;28;20202;-66
2023/04/15 07:33:09;;;;;;;63.57;38.43;;;;;;;9.05;100.00;100996.06;5007412;28;20190;-67
2023/04/15 07:35:34;;;;;;;59.57;37.33;;;;;;;9.11;100.00;101001.34;5007953;28;20187;-67
2023/04/15 07:37:59;;;;;;;62.00;38.63;;;;;;;9.15;100.00;100992.94;5007875;28;20926;-67
2023/04/15 07:40:25;;;;;;;66.10;39.43;;;;;;;9.14;100.00;100996.31;5008453;28;20884;-67
2023/04/15 07:42:51;;;;;;;67.37;40.10;;;;;;;9.17;100.00;101006.63;5007119;28;20668;-68
2023/04/15 07:45:16;;;;;;;62.67;38.67;;;;;;;9.14;100.00;101004.00;5008399;28;20325;-68
2023/04/15 07:47:42;;;;;;;68.33;40.07;;;;;;;9.16;100.00;101010.00;5007924;28;20211;-66
2023/04/15 07:50:10;;;;;;;70.20;40.03;;;;;;;9.21;100.00;101009.31;4989885;28;20264;-67
2023/04/15 07:52:38;;;;;;;64.63;38.93;;;;;;;9.26;100.00;101012.84;5007772;28;20195;-68
2023/04/15 07:55:06;;;;;;;63.37;39.10;;;;;;;9.25;100.00;101010.25;5008443;28;20610;-68
2023/04/15 07:57:31;;;;;;;67.63;39.23;;;;;;;9.27;100.00;101017.13;5006509;28;20331;-68
2023/04/15 07:59:57;;;;;;;66.50;39.03;;;;;;;9.31;100.00;101010.44;5008096;28;20207;-67
2023/04/15 08:02:22;;;;;;;63.47;38.30;;;;;;;9.35;100.00;101019.91;5008179;28;20208;-66
2023/04/15 08:04:47;;;;;;;60.57;38.00;;;;;;;9.38;100.00;101018.31;5007987;28;20203;-66
2023/04/15 08:07:13;;;;;;;56.23;36.67;;;;;;;9.50;100.00;101022.88;5006802;28;20215;-66
2023/04/15 08:09:39;;;;;;;59.83;38.50;;;;;;;9.49;100.00;101028.81;5007440;28;20266;-67
2023/04/15 08:12:05;;;;;;;64.97;39.27;;;;;;;9.53;100.00;101026.38;5007939;28;20226;-66
2023/04/15 08:14:30;;;;;;;62.33;39.27;;;;;;;9.51;100.00;101029.72;5007806;28;20198;-68
2023/04/15 08:16:56;;;;;;;62.83;38.63;;;;;;;9.54;100.00;101028.09;5006048;28;20238;-67
2023/04/15 08:19:21;;;;;;;64.33;38.73;;;;;;;9.54;100.00;101033.19;5006891;28;20652;-69
2023/04/15 08:21:47;;;;;;;63.87;40.23;;;;;;;9.61;100.00;101035.09;5007899;28;20725;-70
2023/04/15 08:24:13;;;;;;;65.57;40.90;;;;;;;9.65;100.00;101030.94;5007853;28;20206;-70
2023/04/15 08:26:38;;;;;;;64.20;40.03;;;;;;;9.62;100.00;101047.06;5009738;28;20655;-69
2023/04/15 08:29:04;;;;;;;63.03;39.77;;;;;;;9.59;100.00;101044.41;5011653;28;20210;-68
2023/04/15 08:31:29;;;;;;;62.73;38.77;;;;;;;9.62;100.00;101043.63;5011575;28;20233;-67
2023/04/15 08:33:56;;;;;;;61.57;40.43;;;;;;;9.69;100.00;101043.84;5011366;28;20199;-66
2023/04/15 08:36:21;;;;;;;63.90;39.80;;;;;;;9.66;100.00;101033.53;5010547;28;20692;-69
2023/04/15 08:38:47;;;;;;;64.37;39.73;;;;;;;9.69;100.00;101033.63;5011064;28;20249;-67
2023/04/15 08:41:24;;;;;;;66.87;39.10;;;;;;;9.75;100.00;101044.00;5011510;28;20195;-67
2023/04/15 08:44:03;;;;;;;63.57;39.37;;;;;;;9.75;100.00;101045.69;5008528;28;20191;-66
2023/04/15 08:46:30;;;;;;;61.27;38.83;;;;;;;9.84;100.00;101044.22;5011148;28;20207;-66
2023/04/15 08:48:57;;;;;;;60.97;37.63;;;;;;;9.84;100.00;101041.69;5010855;28;20207;-67
2023/04/15 08:51:23;;;;;;;60.47;38.20;;;;;;;9.89;100.00;101040.09;5010469;28;20272;-67
2023/04/15 08:53:49;;;;;;;62.93;38.10;;;;;;;9.99;100.00;101044.59;4991337;28;20533;-68
2023/04/15 08:56:15;;;;;;;66.20;38.50;;;;;;;10.08;100.00;101037.19;5011222;28;20230;-69
2023/04/15 08:58:43;;;;;;;56.63;36.93;;;;;;;10.14;100.00;101039.88;5010109;28;20187;-70
2023/04/15 09:01:09;;;;;;;55.00;35.50;;;;;;;10.22;100.00;101043.50;5008806;28;20271;-69
2023/04/15 09:03:35;;;;;;;55.50;35.27;;;;;;;10.32;100.00;101048.00;5007629;28;20239;-72
2023/04/15 09:06:04;;;;;;;56.50;35.43;;;;;;;10.34;100.00;101055.72;5009826;28;20226;-71
2023/04/15 09:08:30;;;;;;;83.10;49.67;;;;;;;10.35;100.00;101050.66;5009984;28;20214;-69
2023/04/15 09:10:56;;;;;;;65.10;41.40;;;;;;;10.46;100.00;101049.19;5009776;28;20203;-69
2023/04/15 09:13:21;;;;;;;56.87;38.63;;;;;;;10.59;100.00;101042.66;5010813;28;20202;-69
2023/04/15 09:15:47;;;;;;;52.43;34.57;;;;;;;10.63;100.00;101050.44;5010857;28;20322;-72
2023/04/15 09:18:25;;;;;;;52.60;34.77;;;;;;;10.66;100.00;101054.78;5010273;28;20279;-68
2023/04/15 09:20:52;;;;;;;51.93;31.57;;;;;;;10.75;100.00;101055.84;5008116;28;20195;-69
2023/04/15 09:23:17;;;;;;;49.47;33.37;;;;;;;10.86;100.00;101062.06;5010379;28;20183;-68
2023/04/15 09:25:44;;;;;;;50.00;33.63;;;;;;;11.10;100.00;101059.16;5010983;28;20253;-68
2023/04/15 09:28:10;;;;;;;50.43;32.43;;;;;;;11.22;100.00;101065.41;5008613;28;20210;-68
2023/04/15 09:30:36;;;;;;;46.10;31.23;;;;;;;11.25;100.00;101064.59;5009566;28;20668;-68
2023/04/15 09:33:06;;;;;;;49.10;31.77;;;;;;;11.35;100.00;101063.94;5010403;28;20226;-68
2023/04/15 09:35:33;;;;;;;47.57;30.97;;;;;;;11.66;100.00;101064.56;5009725;28;20269;-69
2023/04/15 09:38:08;;;;;;;41.60;28.10;;;;;;;12.36;100.00;101067.47;5009179;28;20253;-69
2023/04/15 09:40:39;;;;;;;46.20;32.57;;;;;;;12.54;100.00;101061.78;5008625;28;20214;-68
2023/04/15 09:43:05;;;;;;;43.77;29.27;;;;;;;12.62;100.00;101061.03;5010105;28;20836;-68
2023/04/15 09:45:32;;;;;;;39.00;28.57;;;;;;;12.74;100.00;101063.81;5010399;28;20206;-70
2023/04/15 09:47:59;;;;;;;37.30;26.43;;;;;;;13.12;100.00;101060.91;5009698;28;20215;-69
2023/04/15 09:50:28;;;;;;;38.33;26.70;;;;;;;13.91;100.00;101060.94;5010139;28;20191;-70
2023/04/15 09:52:54;;;;;;;33.97;25.83;;;;;;;14.28;100.00;101055.28;5009891;28;20218;-68
2023/04/15 09:55:20;;;;;;;35.50;25.53;;;;;;;14.62;100.00;101062.38;5010572;28;20209;-68
2023/04/15 09:57:48;;;;;;;32.77;24.23;;;;;;;15.19;100.00;101050.66;5009502;28;20230;-69
2023/04/15 10:00:14;;;;;;;34.67;23.40;;;;;;;14.96;100.00;101039.38;5006080;28;20198;-70
2023/04/15 10:02:43;;;;;;;29.37;22.27;;;;;;;14.68;100.00;101044.41;5010229;28;20195;-69
2023/04/15 10:05:15;;;;;;;31.97;22.93;;;;;;;14.55;100.00;101060.63;5009536;28;20715;-69
2023/04/15 10:07:41;;;;;;;33.00;23.60;;;;;;;14.78;100.00;101077.09;5008633;28;20217;-68
2023/04/15 10:10:08;;;;;;;30.57;23.10;;;;;;;14.27;100.00;101072.44;5010200;28;20213;-68
2023/04/15 10:12:36;;;;;;;27.83;21.70;;;;;;;13.93;100.00;101093.56;5009728;28;20206;-69
2023/04/15 10:15:05;;;;;;;30.03;21.50;;;;;;;13.94;100.00;101089.25;5009809;28;20708;-67
2023/04/15 10:17:34;;;;;;;31.00;23.00;;;;;;;14.29;100.00;101085.34;5008601;28;20222;-69
2023/04/15 10:20:04;;;;;;;31.87;22.73;;;;;;;14.17;100.00;101083.47;5009501;28;20635;-66
2023/04/15 10:22:31;;;;;;;30.67;22.67;;;;;;;14.25;100.00;101084.44;5008500;28;20202;-69
2023/04/15 10:24:57;;;;;;;30.07;22.30;;;;;;;14.16;100.00;101096.34;5008134;28;20195;-70
2023/04/15 10:27:23;;;;;;;29.03;21.70;;;;;;;14.21;100.00;101099.84;5009714;28;20222;-71
2023/04/15 10:29:50;;;;;;;29.63;21.87;;;;;;;14.43;100.00;101101.75;5009439;28;20187;-72
2023/04/15 10:32:19;;;;;;;27.90;21.40;;;;;;;14.45;100.00;101092.34;5004527;28;20329;-71
2023/04/15 10:34:46;;;;;;;28.37;21.83;;;;;;;14.35;100.00;101101.72;5006488;28;20183;-72
2023/04/15 10:37:11;;;;;;;29.23;21.27;;;;;;;14.14;100.00;101113.50;5007189;28;20227;-70
2023/04/15 10:39:39;;;;;;;30.73;21.60;;;;;;;14.20;100.00;101110.97;5009535;28;20213;-72
2023/04/15 10:42:14;;;;;;;31.13;21.77;;;;;;;14.04;100.00;101106.53;4990450;28;20206;-72
2023/04/15 10:44:47;;;;;;;27.83;20.60;;;;;;;13.90;100.00;101108.97;5009454;28;20194;-72
2023/04/15 10:47:18;;;;;;;28.93;21.43;;;;;;;13.94;100.00;101109.84;5008502;28;20254;-70
2023/04/15 10:50:02;;;;;;;28.00;21.27;;;;;;;14.00;100.00;101121.09;5009276;28;20191;-73
2023/04/15 10:52:28;;;;;;;28.30;20.40;;;;;;;14.15;100.00;101104.91;5007745;28;20653;-72
2023/04/15 10:55:17;;;;;;;28.40;20.17;;;;;;;14.26;100.00;101090.44;5008856;28;20194;-73
2023/04/15 10:57:43;;;;;;;27.37;19.20;;;;;;;14.81;100.00;101080.56;5007334;28;20293;-67
2023/04/15 11:00:15;;;;;;;25.30;18.20;;;;;;;15.42;100.00;101051.63;5006092;28;20256;-70
2023/04/15 11:02:45;;;;;;;28.97;19.60;;;;;;;15.29;100.00;101030.94;4991357;28;20198;-69
2023/04/15 11:05:11;;;;;;;24.73;19.30;;;;;;;15.06;100.00;101078.97;5008765;28;20249;-73
2023/04/15 11:07:50;;;;;;;21.20;16.80;;;;;;;14.77;100.00;101083.09;5008479;28;20213;-71